createdAt,value
2018-09-29T00:01:26.690Z,101332.77
2018-09-29T00:03:55.703Z,101331.95
2018-09-29T00:06:23.269Z,101329.04
2018-09-29T00:08:51.879Z,101323.45
2018-09-29T00:11:19.738Z,101319.23
2018-09-29T00:13:47.279Z,101324.27
2018-09-29T00:16:18.548Z,101329.33
2018-09-29T00:18:46.767Z,101322.47
2018-09-29T00:21:14.410Z,101321.85
2018-09-29T00:23:41.989Z,101334.76
2018-09-29T00:26:10.011Z,101333.97
2018-09-29T00:28:37.654Z,101331.84
2018-09-29T00:31:05.202Z,101335.81
2018-09-29T00:33:32.767Z,101328.85
2018-09-29T00:36:01.657Z,101331.14
2018-09-29T00:38:30.101Z,101333.91
2018-09-29T00:40:57.918Z,101337.57
2018-09-29T00:43:25.445Z,101341.66
2018-09-29T00:45:53.379Z,101334.34
2018-09-29T00:48:20.960Z,101336.68
2018-09-29T00:50:48.502Z,101337.68
2018-09-29T00:53:16.033Z,101336.01
2018-09-29T00:55:43.999Z,101340.45
2018-09-29T00:58:11.555Z,101339.22
2018-09-29T01:00:39.665Z,101344.54
2018-09-29T01:03:08.691Z,101342.42
2018-09-29T01:05:37.052Z,101338.06
2018-09-29T01:08:04.752Z,101338.63
2018-09-29T01:10:32.684Z,101333.91
2018-09-29T01:13:00.351Z,101330.56
2018-09-29T01:15:27.948Z,101332.00
2018-09-29T01:17:55.479Z,101331.25
2018-09-29T01:20:23.515Z,101333.94
2018-09-29T01:22:51.743Z,101336.69
2018-09-29T01:25:19.345Z,101335.02
2018-09-29T01:27:48.338Z,101334.66
2018-09-29T01:30:18.472Z,101336.09
2018-09-29T01:32:46.010Z,101338.82
2018-09-29T01:35:13.573Z,101333.26
2018-09-29T01:37:41.119Z,101325.83
2018-09-29T01:40:08.670Z,101328.59
2018-09-29T01:42:36.245Z,101327.27
2018-09-29T01:45:03.778Z,101319.47
2018-09-29T01:47:31.657Z,101322.67
2018-09-29T01:49:59.214Z,101327.58
2018-09-29T01:52:26.761Z,101325.86
2018-09-29T01:54:54.683Z,101325.03
2018-09-29T01:57:22.758Z,101324.19
2018-09-29T01:59:50.349Z,101329.50
2018-09-29T02:02:21.602Z,101324.75
2018-09-29T02:04:49.805Z,101326.10
2018-09-29T02:07:17.334Z,101325.75
2018-09-29T02:09:44.878Z,101324.02
2018-09-29T02:12:12.456Z,101318.39
2018-09-29T02:14:40.486Z,101321.03
2018-09-29T02:17:08.693Z,101312.67
2018-09-29T02:19:37.419Z,101314.51
2018-09-29T02:22:04.966Z,101316.71
2018-09-29T02:24:33.017Z,101316.02
2018-09-29T02:27:00.839Z,101327.53
2018-09-29T02:29:28.417Z,101314.50
2018-09-29T02:31:55.962Z,101316.81
2018-09-29T02:34:24.024Z,101320.88
2018-09-29T02:36:51.608Z,101320.63
2018-09-29T02:39:19.175Z,101321.58
2018-09-29T02:41:47.402Z,101317.30
2018-09-29T02:44:15.265Z,101311.37
2018-09-29T02:46:42.790Z,101311.05
2018-09-29T02:49:10.398Z,101312.04
2018-09-29T02:51:38.873Z,101316.43
2018-09-29T02:54:08.871Z,101315.16
2018-09-29T02:56:36.568Z,101314.86
2018-09-29T02:59:04.157Z,101319.73
2018-09-29T03:01:31.728Z,101311.45
2018-09-29T03:03:59.604Z,101311.49
2018-09-29T03:06:27.231Z,101311.49
2018-09-29T03:08:54.827Z,101310.28
2018-09-29T03:11:22.383Z,101306.41
2018-09-29T03:13:51.319Z,101302.13
2018-09-29T03:16:18.862Z,101299.05
2018-09-29T03:18:46.461Z,101303.98
2018-09-29T03:21:14.019Z,101307.50
2018-09-29T03:23:41.968Z,101307.09
2018-09-29T03:26:09.559Z,101304.98
2018-09-29T03:28:37.996Z,101300.63
2018-09-29T03:31:05.564Z,101302.45
2018-09-29T03:33:34.134Z,101302.92
2018-09-29T03:36:01.724Z,101293.77
2018-09-29T03:38:29.285Z,101300.84
2018-09-29T03:40:57.186Z,101307.02
2018-09-29T03:43:24.750Z,101297.80
2018-09-29T03:45:52.639Z,101297.36
2018-09-29T03:48:20.587Z,101289.09
2018-09-29T03:50:48.167Z,101295.30
2018-09-29T03:53:15.753Z,101290.05
2018-09-29T03:55:43.386Z,101287.87
2018-09-29T03:58:11.247Z,101294.87
2018-09-29T04:00:38.785Z,101293.95
2018-09-29T04:03:06.344Z,101286.45
2018-09-29T04:05:33.889Z,101296.99
2018-09-29T04:08:01.997Z,101294.36
2018-09-29T04:10:29.546Z,101300.00
2018-09-29T04:12:57.166Z,101306.55
2018-09-29T04:15:24.743Z,101305.22
2018-09-29T04:17:52.820Z,101310.97
2018-09-29T04:20:21.785Z,101308.84
2018-09-29T04:22:51.874Z,101301.45
2018-09-29T04:25:19.408Z,101311.58
2018-09-29T04:27:47.321Z,101312.94
2018-09-29T04:30:14.914Z,101315.57
2018-09-29T04:32:42.476Z,101320.06
2018-09-29T04:35:11.487Z,101323.75
2018-09-29T04:37:39.614Z,101324.36
2018-09-29T04:40:08.336Z,101323.65
2018-09-29T04:42:35.895Z,101328.17
2018-09-29T04:45:03.817Z,101326.11
2018-09-29T04:47:31.416Z,101325.77
2018-09-29T04:49:58.947Z,101329.38
2018-09-29T04:52:26.519Z,101334.68
2018-09-29T04:54:54.426Z,101336.91
2018-09-29T04:57:21.991Z,101330.36
2018-09-29T04:59:49.556Z,101333.49
2018-09-29T05:02:17.399Z,101335.72
2018-09-29T05:04:44.996Z,101339.70
2018-09-29T05:07:12.651Z,101345.50
2018-09-29T05:09:40.598Z,101341.14
2018-09-29T05:12:08.235Z,101343.78
2018-09-29T05:14:35.804Z,101346.91
2018-09-29T05:17:03.385Z,101353.48
2018-09-29T05:19:31.355Z,101348.23
2018-09-29T05:21:59.109Z,101348.63
2018-09-29T05:24:26.675Z,101348.23
2018-09-29T05:26:54.298Z,101351.64
2018-09-29T05:29:22.351Z,101352.05
2018-09-29T05:31:51.000Z,101345.50
2018-09-29T05:34:18.803Z,101345.56
2018-09-29T05:36:46.338Z,101354.40
2018-09-29T05:39:14.178Z,101348.77
2018-09-29T05:41:42.744Z,101342.72
2018-09-29T05:44:10.331Z,101337.45
2018-09-29T05:46:38.471Z,101341.40
2018-09-29T05:49:06.140Z,101339.17
2018-09-29T05:51:33.842Z,101336.55
2018-09-29T05:54:02.965Z,101343.09
2018-09-29T05:56:30.533Z,101337.73
2018-09-29T05:58:59.314Z,101342.33
2018-09-29T06:01:29.358Z,101347.91
2018-09-29T06:03:56.928Z,101348.55
2018-09-29T06:06:24.479Z,101347.88
2018-09-29T06:08:53.228Z,101343.33
2018-09-29T06:11:20.854Z,101345.80
2018-09-29T06:13:48.458Z,101349.13
2018-09-29T06:16:17.530Z,101356.39
2018-09-29T06:18:46.049Z,101360.61
2018-09-29T06:21:13.614Z,101366.58
2018-09-29T06:23:42.563Z,101369.52
2018-09-29T06:26:11.226Z,101366.84
2018-09-29T06:28:39.375Z,101369.52
2018-09-29T06:31:09.853Z,101375.70
2018-09-29T06:33:37.431Z,101371.23
2018-09-29T06:36:06.639Z,101376.00
2018-09-29T06:38:35.504Z,101375.83
2018-09-29T06:41:03.347Z,101374.77
2018-09-29T06:43:30.945Z,101366.25
2018-09-29T06:45:58.920Z,101364.64
2018-09-29T06:48:26.491Z,101362.19
2018-09-29T06:50:54.174Z,101361.49
2018-09-29T06:53:25.358Z,101351.52
2018-09-29T06:55:53.395Z,101360.74
2018-09-29T06:58:21.963Z,101358.27
2018-09-29T07:00:50.568Z,101356.24
2018-09-29T07:03:18.301Z,101349.81
2018-09-29T07:05:45.842Z,101351.61
2018-09-29T07:08:13.767Z,101345.41
2018-09-29T07:10:41.348Z,101340.03
2018-09-29T07:13:08.893Z,101346.62
2018-09-29T07:15:36.730Z,101347.43
2018-09-29T07:18:04.403Z,101346.07
2018-09-29T07:20:33.447Z,101345.06
2018-09-29T07:23:01.628Z,101341.39
2018-09-29T07:25:29.265Z,101336.73
2018-09-29T07:27:56.828Z,101338.78
2018-09-29T07:30:24.754Z,101338.03
2018-09-29T07:32:52.350Z,101337.75
2018-09-29T07:35:19.922Z,101342.52
2018-09-29T07:37:48.185Z,101349.09
2018-09-29T07:40:15.745Z,101348.79
2018-09-29T07:42:43.317Z,101346.23
2018-09-29T07:45:12.159Z,101346.47
2018-09-29T07:47:39.700Z,101341.20
2018-09-29T07:50:07.980Z,101350.73
2018-09-29T07:52:36.815Z,101342.55
2018-09-29T07:55:04.401Z,101342.08
2018-09-29T07:57:32.013Z,101345.42
2018-09-29T08:00:00.849Z,101341.83
2018-09-29T08:02:29.363Z,101334.22
2018-09-29T08:04:57.741Z,101335.66
2018-09-29T08:07:25.793Z,101336.65
2018-09-29T08:09:54.007Z,101342.58
2018-09-29T08:12:26.373Z,101336.47
2018-09-29T08:14:54.371Z,101341.41
2018-09-29T08:17:24.407Z,101336.67
2018-09-29T08:19:52.682Z,101335.83
2018-09-29T08:22:21.585Z,101338.80
2018-09-29T08:24:50.489Z,101336.05
2018-09-29T08:27:19.030Z,101331.14
2018-09-29T08:29:47.250Z,101330.72
2018-09-29T08:32:14.965Z,101316.82
2018-09-29T08:34:42.567Z,101322.48
2018-09-29T08:37:11.259Z,101326.95
2018-09-29T08:39:38.859Z,101330.45
2018-09-29T08:42:07.323Z,101332.79
2018-09-29T08:44:35.278Z,101331.61
2018-09-29T08:47:04.599Z,101328.26
2018-09-29T08:49:35.728Z,101325.20
2018-09-29T08:52:03.615Z,101315.13
2018-09-29T08:54:32.142Z,101317.84
2018-09-29T08:57:00.388Z,101309.50
2018-09-29T08:59:28.259Z,101305.98
2018-09-29T09:01:55.833Z,101304.47
2018-09-29T09:04:28.099Z,101305.52
2018-09-29T09:06:56.478Z,101296.80
2018-09-29T09:11:58.675Z,101295.20
2018-09-29T09:14:28.404Z,101291.52
2018-09-29T09:16:56.995Z,101289.60
2018-09-29T09:19:24.586Z,101287.86
2018-09-29T09:21:52.521Z,101278.93
2018-09-29T09:24:20.528Z,101277.58
2018-09-29T09:26:48.216Z,101275.20
2018-09-29T09:29:16.171Z,101277.55
2018-09-29T09:31:44.315Z,101274.74
2018-09-29T09:34:11.883Z,101265.84
2018-09-29T09:36:39.790Z,101265.84
2018-09-29T09:39:07.353Z,101248.98
2018-09-29T09:41:34.882Z,101248.27
2018-09-29T09:44:03.769Z,101242.44
2018-09-29T09:46:31.340Z,101228.55
2018-09-29T09:48:58.884Z,101222.64
2018-09-29T09:51:28.533Z,101223.73
2018-09-29T09:53:57.552Z,101223.09
2018-09-29T09:56:25.977Z,101216.97
2018-09-29T09:58:54.643Z,101208.02
2018-09-29T10:01:27.393Z,101202.76
2018-09-29T10:03:55.629Z,101207.33
2018-09-29T10:06:24.390Z,101203.52
2018-09-29T10:08:51.983Z,101198.23
2018-09-29T10:11:19.576Z,101199.37
2018-09-29T10:13:47.543Z,101199.73
2018-09-29T10:16:15.090Z,101193.55
2018-09-29T10:18:42.761Z,101183.08
2018-09-29T10:21:10.767Z,101177.41
2018-09-29T10:23:38.370Z,101170.70
2018-09-29T10:26:05.987Z,101164.46
2018-09-29T10:28:34.047Z,101169.58
2018-09-29T10:31:01.669Z,101157.55
2018-09-29T10:33:29.352Z,101157.97
2018-09-29T10:35:57.346Z,101151.44
2018-09-29T10:38:26.284Z,101154.25
2018-09-29T10:40:54.461Z,101145.98
2018-09-29T10:43:24.192Z,101145.33
2018-09-29T10:45:51.820Z,101144.34
2018-09-29T10:48:19.390Z,101137.95
2018-09-29T10:50:47.394Z,101142.50
2018-09-29T10:53:15.016Z,101135.91
2018-09-29T10:55:42.802Z,101137.52
2018-09-29T10:58:10.774Z,101135.73
2018-09-29T11:00:38.974Z,101136.11
2018-09-29T11:03:06.524Z,101130.85
2018-09-29T11:05:34.649Z,101130.27
2018-09-29T11:08:02.494Z,101127.06
2018-09-29T11:10:30.107Z,101123.62
2018-09-29T11:12:57.675Z,101122.99
2018-09-29T11:15:25.346Z,101127.04
2018-09-29T11:17:54.170Z,101114.59
2018-09-29T11:20:23.650Z,101106.91
2018-09-29T11:22:53.601Z,101109.39
2018-09-29T11:25:22.515Z,101108.23
2018-09-29T11:27:50.223Z,101094.00
2018-09-29T11:30:19.098Z,101100.55
2018-09-29T11:32:48.450Z,101095.81
2018-09-29T11:35:16.029Z,101097.38
2018-09-29T11:37:43.612Z,101092.62
2018-09-29T11:40:12.221Z,101074.92
2018-09-29T11:42:39.822Z,101080.84
2018-09-29T11:45:08.269Z,101077.03
2018-09-29T11:47:40.133Z,101072.44
2018-09-29T11:50:07.866Z,101065.92
2018-09-29T11:52:35.462Z,101052.01
2018-09-29T11:55:04.543Z,101055.66
2018-09-29T11:57:34.546Z,101060.91
2018-09-29T12:00:02.171Z,101046.54
2018-09-29T12:02:30.803Z,101035.15
2018-09-29T12:04:58.376Z,101031.45
2018-09-29T12:07:27.475Z,101025.68
2018-09-29T12:09:55.289Z,101025.12
2018-09-29T12:12:24.673Z,101025.05
2018-09-29T12:14:52.284Z,101016.30
2018-09-29T12:17:20.119Z,101003.37
2018-09-29T12:19:48.733Z,101017.42
2018-09-29T12:22:16.352Z,101011.52
2018-09-29T12:24:44.368Z,101002.73
2018-09-29T12:27:11.925Z,100997.33
2018-09-29T12:29:39.550Z,100995.16
2018-09-29T12:32:07.529Z,100994.31
2018-09-29T12:34:35.167Z,100997.55
2018-09-29T12:37:05.795Z,100992.34
2018-09-29T12:39:33.847Z,100989.53
2018-09-29T12:42:01.457Z,100983.42
2018-09-29T12:44:29.135Z,100981.36
2018-09-29T12:46:56.974Z,100986.22
2018-09-29T12:49:24.597Z,100984.29
2018-09-29T12:51:52.227Z,100977.10
2018-09-29T12:54:21.193Z,100975.00
2018-09-29T12:56:49.357Z,100977.36
2018-09-29T12:59:17.326Z,100975.20
2018-09-29T13:01:45.336Z,100974.95
2018-09-29T13:04:12.900Z,100980.26
2018-09-29T13:06:41.358Z,100972.77
2018-09-29T13:09:09.301Z,100968.61
2018-09-29T13:11:37.035Z,100964.23
2018-09-29T13:14:05.475Z,100960.02
2018-09-29T13:16:34.054Z,100957.05
2018-09-29T13:19:01.667Z,100955.55
2018-09-29T13:21:29.626Z,100945.92
2018-09-29T13:23:57.664Z,100936.92
2018-09-29T13:26:26.320Z,100940.08
2018-09-29T13:28:53.915Z,100933.65
2018-09-29T13:31:22.354Z,100938.70
2018-09-29T13:33:49.919Z,100930.34
2018-09-29T13:36:18.337Z,100928.56
2018-09-29T13:38:49.926Z,100927.66
2018-09-29T13:41:17.537Z,100919.14
2018-09-29T13:43:45.312Z,100914.75
2018-09-29T13:46:13.231Z,100913.05
2018-09-29T13:48:40.834Z,100913.00
2018-09-29T13:51:08.496Z,100913.27
2018-09-29T13:53:36.399Z,100910.22
2018-09-29T13:56:04.527Z,100908.17
2018-09-29T13:58:32.326Z,100902.92
2018-09-29T14:01:03.418Z,100898.53
2018-09-29T14:03:32.137Z,100897.66
2018-09-29T14:05:59.934Z,100889.23
2018-09-29T14:08:32.488Z,100884.63
2018-09-29T14:11:00.812Z,100880.02
2018-09-29T14:13:28.450Z,100881.59
2018-09-29T14:15:56.924Z,100874.08
2018-09-29T14:18:24.563Z,100868.04
2018-09-29T14:20:52.531Z,100869.20
2018-09-29T14:23:22.669Z,100863.59
2018-09-29T14:25:52.035Z,100854.17
2018-09-29T14:28:20.674Z,100849.84
2018-09-29T14:30:48.235Z,100842.27
2018-09-29T14:33:19.668Z,100838.06
2018-09-29T14:35:48.229Z,100831.98
2018-09-29T14:38:15.806Z,100826.11
2018-09-29T14:40:43.415Z,100817.17
2018-09-29T14:43:11.661Z,100815.69
2018-09-29T14:45:39.225Z,100811.86
2018-09-29T14:48:08.031Z,100811.21
2018-09-29T14:50:35.826Z,100811.55
2018-09-29T14:53:03.593Z,100807.22
2018-09-29T14:55:31.666Z,100801.91
2018-09-29T14:58:00.666Z,100807.55
2018-09-29T15:00:28.225Z,100800.45
2018-09-29T15:02:56.061Z,100806.37
2018-09-29T15:05:24.341Z,100803.13
2018-09-29T15:07:54.621Z,100796.80
2018-09-29T15:10:22.546Z,100792.24
2018-09-29T15:12:50.089Z,100786.37
2018-09-29T15:15:18.328Z,100784.02
2018-09-29T15:17:48.242Z,100778.86
2018-09-29T15:20:16.694Z,100780.72
2018-09-29T15:22:44.310Z,100779.19
2018-09-29T15:25:12.182Z,100767.14
2018-09-29T15:27:40.309Z,100770.97
2018-09-29T15:30:07.864Z,100768.38
2018-09-29T15:32:35.826Z,100757.54
2018-09-29T15:35:04.417Z,100757.46
2018-09-29T15:37:32.514Z,100751.63
2018-09-29T15:40:00.552Z,100747.70
2018-09-29T15:42:29.175Z,100755.18
2018-09-29T15:44:57.425Z,100750.98
2018-09-29T15:47:30.015Z,100750.61
2018-09-29T15:49:58.255Z,100752.08
2018-09-29T15:52:26.450Z,100751.25
2018-09-29T15:54:56.477Z,100752.76
2018-09-29T15:57:26.347Z,100751.92
2018-09-29T15:59:56.811Z,100747.78
2018-09-29T16:02:27.663Z,100742.03
2018-09-29T16:04:55.307Z,100741.17
2018-09-29T16:07:23.674Z,100744.51
2018-09-29T16:09:52.496Z,100742.84
2018-09-29T16:12:20.669Z,100740.66
2018-09-29T16:14:48.662Z,100732.85
2018-09-29T16:17:16.693Z,100736.48
2018-09-29T16:19:44.241Z,100731.82
2018-09-29T16:22:12.391Z,100728.61
2018-09-29T16:24:40.261Z,100719.66
2018-09-29T16:27:07.873Z,100725.42
2018-09-29T16:29:35.723Z,100718.80
2018-09-29T16:32:04.574Z,100720.08
2018-09-29T16:34:33.398Z,100725.37
2018-09-29T16:37:02.322Z,100720.95
2018-09-29T16:39:30.355Z,100717.32
2018-09-29T16:41:58.648Z,100718.37
2018-09-29T16:44:26.941Z,100721.95
2018-09-29T16:46:57.378Z,100717.59
2018-09-29T16:49:26.672Z,100713.63
2018-09-29T16:51:55.837Z,100717.67
2018-09-29T16:54:24.813Z,100715.59
2018-09-29T16:56:53.981Z,100721.61
2018-09-29T16:59:22.542Z,100722.22
2018-09-29T17:01:53.272Z,100732.56
2018-09-29T17:04:21.470Z,100732.45
2018-09-29T17:06:49.068Z,100736.11
2018-09-29T17:09:17.871Z,100741.22
2018-09-29T17:11:46.087Z,100739.01
2018-09-29T17:14:13.655Z,100733.27
2018-09-29T17:16:41.598Z,100727.40
2018-09-29T17:19:09.192Z,100740.94
2018-09-29T17:21:37.369Z,100729.63
2018-09-29T17:24:05.489Z,100727.18
2018-09-29T17:26:33.077Z,100725.58
2018-09-29T17:29:00.683Z,100729.67
2018-09-29T17:31:28.727Z,100731.20
2018-09-29T17:33:56.319Z,100723.02
2018-09-29T17:36:24.610Z,100721.03
2018-09-29T17:38:55.309Z,100727.90
2018-09-29T17:41:23.674Z,100723.61
2018-09-29T17:43:51.259Z,100724.66
2018-09-29T17:46:22.178Z,100721.23
2018-09-29T17:48:50.747Z,100720.56
2018-09-29T17:51:18.522Z,100715.77
2018-09-29T17:53:46.393Z,100720.20
2018-09-29T17:56:13.995Z,100721.61
2018-09-29T17:58:41.584Z,100712.73
2018-09-29T18:01:09.583Z,100718.20
2018-09-29T18:03:38.145Z,100707.32
2018-09-29T18:06:07.100Z,100705.68
2018-09-29T18:08:34.997Z,100703.94
2018-09-29T18:11:03.169Z,100703.12
2018-09-29T18:13:30.754Z,100704.24
2018-09-29T18:15:59.797Z,100700.16
2018-09-29T18:18:27.398Z,100703.33
2018-09-29T18:20:56.682Z,100706.08
2018-09-29T18:23:25.762Z,100701.75
2018-09-29T18:25:53.375Z,100709.47
2018-09-29T18:28:21.652Z,100705.66
2018-09-29T18:30:50.511Z,100707.41
2018-09-29T18:33:20.324Z,100709.05
2018-09-29T18:35:51.445Z,100708.99
2018-09-29T18:38:20.583Z,100701.03
2018-09-29T18:40:48.165Z,100695.38
2018-09-29T18:43:16.318Z,100692.75
2018-09-29T18:45:44.301Z,100698.59
2018-09-29T18:48:11.837Z,100693.30
2018-09-29T18:50:39.349Z,100698.45
2018-09-29T18:53:07.246Z,100696.67
2018-09-29T18:55:35.851Z,100693.20
2018-09-29T18:58:03.425Z,100689.10
2018-09-29T19:00:32.797Z,100689.41
2018-09-29T19:03:00.620Z,100692.86
2018-09-29T19:05:29.380Z,100688.02
2018-09-29T19:07:58.347Z,100688.40
2018-09-29T19:10:28.706Z,100691.84
2018-09-29T19:12:57.099Z,100685.50
2018-09-29T19:15:25.008Z,100680.06
2018-09-29T19:17:53.158Z,100692.61
2018-09-29T19:20:20.678Z,100695.56
2018-09-29T19:22:49.240Z,100690.62
2018-09-29T19:25:17.408Z,100702.95
2018-09-29T19:27:46.480Z,100701.63
2018-09-29T19:30:17.301Z,100708.18
2018-09-29T19:32:48.529Z,100712.83
2018-09-29T19:35:16.302Z,100713.03
2018-09-29T19:37:45.712Z,100714.27
2018-09-29T19:40:13.598Z,100706.66
2018-09-29T19:45:16.929Z,100715.84
2018-09-29T19:47:44.470Z,100708.25
2018-09-29T19:50:12.303Z,100708.15
2018-09-29T19:52:40.823Z,100704.90
2018-09-29T19:55:09.948Z,100705.64
2018-09-29T19:57:39.625Z,100701.36
2018-09-29T20:00:08.659Z,100702.88
2018-09-29T20:02:37.858Z,100704.78
2018-09-29T20:05:10.423Z,100698.68
2018-09-29T20:07:38.243Z,100696.14
2018-09-29T20:10:08.367Z,100700.78
2018-09-29T20:12:36.629Z,100700.18
2018-09-29T20:15:04.430Z,100698.83
2018-09-29T20:17:32.371Z,100693.98
2018-09-29T20:20:03.664Z,100684.37
2018-09-29T20:22:35.454Z,100688.36
2018-09-29T20:25:05.243Z,100684.63
2018-09-29T20:27:34.740Z,100680.04
2018-09-29T20:30:04.282Z,100675.64
2018-09-29T20:35:14.691Z,100667.91
2018-09-29T20:37:44.473Z,100665.72
2018-09-29T20:40:12.015Z,100665.34
2018-09-29T20:42:39.547Z,100657.16
2018-09-29T20:45:07.101Z,100662.27
2018-09-29T20:47:34.662Z,100661.58
2018-09-29T20:50:03.687Z,100654.09
2018-09-29T20:52:32.205Z,100656.28
2018-09-29T20:55:00.767Z,100651.55
2018-09-29T20:57:30.517Z,100647.72
2018-09-29T20:59:59.298Z,100640.34
2018-09-29T21:02:28.492Z,100637.95
2018-09-29T21:04:57.063Z,100635.06
2018-09-29T21:07:24.847Z,100631.58
2018-09-29T21:09:52.964Z,100638.41
2018-09-29T21:12:21.914Z,100634.73
2018-09-29T21:14:49.555Z,100632.09
2018-09-29T21:17:18.315Z,100622.99
2018-09-29T21:19:46.344Z,100627.13
2018-09-29T21:22:13.921Z,100618.03
2018-09-29T21:24:41.476Z,100623.59
2018-09-29T21:27:09.521Z,100622.91
2018-09-29T21:29:37.108Z,100621.34
2018-09-29T21:32:04.652Z,100611.88
2018-09-29T21:34:32.682Z,100609.00
2018-09-29T21:37:01.354Z,100610.13
2018-09-29T21:39:29.977Z,100608.57
2018-09-29T21:41:59.330Z,100604.92
2018-09-29T21:44:26.890Z,100597.72
2018-09-29T21:46:55.363Z,100604.98
2018-09-29T21:49:24.395Z,100597.36
2018-09-29T21:51:52.657Z,100591.94
2018-09-29T21:54:20.205Z,100594.34
2018-09-29T21:56:49.882Z,100588.92
2018-09-29T21:59:21.336Z,100595.41
2018-09-29T22:01:49.699Z,100593.01
2018-09-29T22:04:18.803Z,100600.63
2018-09-29T22:06:46.364Z,100588.48
2018-09-29T22:09:18.722Z,100590.16
2018-09-29T22:11:46.744Z,100589.16
2018-09-29T22:14:16.051Z,100588.36
2018-09-29T22:16:44.511Z,100586.27
2018-09-29T22:19:13.977Z,100587.77
2018-09-29T22:21:41.544Z,100585.13
2018-09-29T22:24:09.181Z,100577.74
2018-09-29T22:26:38.551Z,100566.36
2018-09-29T22:29:07.323Z,100566.16
2018-09-29T22:31:34.948Z,100573.29
2018-09-29T22:34:03.840Z,100566.09
2018-09-29T22:36:31.385Z,100565.77
2018-09-29T22:38:59.565Z,100563.58
2018-09-29T22:41:28.118Z,100560.03
2018-09-29T22:43:55.707Z,100563.06
2018-09-29T22:46:27.847Z,100557.77
2018-09-29T22:48:55.736Z,100558.98
2018-09-29T22:51:23.321Z,100557.67
2018-09-29T22:53:52.737Z,100554.19
2018-09-29T22:56:20.786Z,100551.55
2018-09-29T22:58:48.383Z,100554.19
2018-09-29T23:01:16.000Z,100550.29
2018-09-29T23:03:44.043Z,100547.64
2018-09-29T23:06:11.628Z,100550.91
2018-09-29T23:08:39.227Z,100544.86
2018-09-29T23:11:07.125Z,100550.77
2018-09-29T23:13:34.707Z,100540.44
2018-09-29T23:16:02.932Z,100546.91
2018-09-29T23:18:31.007Z,100538.97
2018-09-29T23:20:58.616Z,100540.14
2018-09-29T23:23:27.223Z,100538.20
2018-09-29T23:25:56.336Z,100536.17
2018-09-29T23:28:24.484Z,100541.59
2018-09-29T23:30:52.095Z,100539.95
2018-09-29T23:33:20.024Z,100534.42
2018-09-29T23:35:47.681Z,100533.66
2018-09-29T23:38:15.906Z,100529.86
2018-09-29T23:40:43.885Z,100534.89
2018-09-29T23:43:11.488Z,100532.48
2018-09-29T23:45:39.094Z,100532.78
2018-09-29T23:48:08.749Z,100532.56
2018-09-29T23:50:40.479Z,100533.08
2018-09-29T23:53:08.317Z,100531.92
2018-09-29T23:55:36.421Z,100527.02
2018-09-29T23:58:04.837Z,100523.45
